Depue Junction, Illinois
Current Conditions -  °F | °C
As of 11:35 AM on Tuesday 21 Oct 2014 (Local Time) from KVYS Reporting Station
Scattered Clouds Scattered Clouds  
Wind Chill: 55°   Ceiling: Unl
Heat Index: 55°   Visibility: 10mi
Dew Point: 38°   Wind: 12mph
Humidity: 54%   Direction: 20°NNE
Pressure: 30.18"   Gusts: 18mph
Location:  41.3278°N, 89.2998°W
Report Text: KVYS 211635Z AUTO 02010G16KT 10SM SCT037 13/03 A3018 RMK AO2 T01260034
Loading
Personal Weather Stations






























Interactive Weather Map
Tropical Storm Tracking
New forecast layout! Learn more

10-Day Weather Forecast

Advertisements
Track Severe Weather on mobile